createdAt,value
2019-06-01T00:02:15.644Z,11.30
2019-06-01T00:04:45.232Z,10.80
2019-06-01T00:07:14.796Z,10.10
2019-06-01T00:09:45.088Z,10.27
2019-06-01T00:12:14.366Z,9.70
2019-06-01T00:14:43.675Z,9.43
2019-06-01T00:17:12.639Z,10.03
2019-06-01T00:19:41.984Z,9.97
2019-06-01T00:22:11.488Z,8.77
2019-06-01T00:24:41.715Z,8.53
2019-06-01T00:27:11.340Z,9.70
2019-06-01T00:29:40.664Z,8.40
2019-06-01T00:32:09.584Z,8.37
2019-06-01T00:34:38.528Z,8.13
2019-06-01T00:37:07.745Z,9.37
2019-06-01T00:39:36.937Z,9.47
2019-06-01T00:42:06.172Z,7.90
2019-06-01T00:44:35.362Z,8.53
2019-06-01T00:47:04.529Z,8.10
2019-06-01T00:49:33.627Z,8.40
2019-06-01T00:52:02.587Z,7.90
2019-06-01T00:54:31.552Z,8.50
2019-06-01T00:57:00.600Z,8.67
2019-06-01T00:59:29.783Z,8.00
2019-06-01T01:01:58.753Z,10.40
2019-06-01T01:04:27.697Z,11.40
2019-06-01T01:06:56.952Z,11.60
2019-06-01T01:09:25.900Z,10.30
2019-06-01T01:11:55.319Z,9.57
2019-06-01T01:14:24.449Z,9.87
2019-06-01T01:16:54.146Z,9.37
2019-06-01T01:19:23.348Z,9.57
2019-06-01T01:21:52.672Z,8.50
2019-06-01T01:24:21.846Z,8.33
2019-06-01T01:26:50.799Z,9.40
2019-06-01T01:29:19.715Z,8.47
2019-06-01T01:31:49.219Z,8.90
2019-06-01T01:34:18.197Z,8.90
2019-06-01T01:36:47.624Z,9.77
2019-06-01T01:39:16.750Z,8.03
2019-06-01T01:41:45.876Z,8.00
2019-06-01T01:44:14.888Z,9.23
2019-06-01T01:46:43.854Z,8.63
2019-06-01T01:49:12.796Z,8.03
2019-06-01T01:51:41.807Z,8.37
2019-06-01T01:54:10.864Z,8.17
2019-06-01T01:56:39.813Z,8.13
2019-06-01T01:59:08.759Z,9.07
2019-06-01T02:01:37.826Z,8.57
2019-06-01T02:04:06.872Z,11.33
2019-06-01T02:06:35.831Z,10.20
2019-06-01T02:09:07.556Z,9.80
2019-06-01T02:11:36.848Z,8.83
2019-06-01T02:14:06.633Z,9.10
2019-06-01T02:16:35.649Z,10.23
2019-06-01T02:19:04.860Z,9.40
2019-06-01T02:21:33.893Z,10.10
2019-06-01T02:24:03.291Z,8.30
2019-06-01T02:26:32.483Z,8.53
2019-06-01T02:29:02.986Z,8.43
2019-06-01T02:31:41.829Z,8.13
2019-06-01T02:34:05.552Z,8.00
2019-06-01T02:36:33.921Z,8.60
2019-06-01T02:39:05.278Z,9.20
2019-06-01T02:41:34.492Z,8.67
2019-06-01T02:44:06.119Z,8.90
2019-06-01T02:46:35.802Z,9.40
2019-06-01T02:49:06.252Z,7.83
2019-06-01T02:51:35.713Z,8.83
2019-06-01T02:54:06.150Z,10.73
2019-06-01T02:56:35.636Z,10.40
2019-06-01T02:59:04.836Z,11.20
2019-06-01T03:01:35.703Z,9.70
2019-06-01T03:04:09.659Z,11.90
2019-06-01T03:06:41.644Z,8.23
2019-06-01T03:09:10.736Z,8.10
2019-06-01T03:11:41.699Z,9.13
2019-06-01T03:14:12.318Z,9.03
2019-06-01T03:16:42.736Z,10.97
2019-06-01T03:19:13.300Z,11.77
2019-06-01T03:21:45.071Z,11.73
2019-06-01T03:24:14.452Z,13.40
2019-06-01T03:26:47.266Z,12.17
2019-06-01T03:29:18.852Z,12.80
2019-06-01T03:31:48.523Z,13.23
2019-06-01T03:34:17.636Z,14.60
2019-06-01T03:36:46.715Z,15.23
2019-06-01T03:39:16.018Z,13.33
2019-06-01T03:41:45.257Z,13.50
2019-06-01T03:44:14.375Z,12.83
2019-06-01T03:46:43.430Z,13.40
2019-06-01T03:49:12.577Z,12.37
2019-06-01T03:51:41.595Z,12.90
2019-06-01T03:54:10.612Z,13.17
2019-06-01T03:56:39.728Z,13.67
2019-06-01T03:59:09.332Z,13.10
2019-06-01T04:01:38.551Z,13.87
2019-06-01T04:04:09.329Z,13.20
2019-06-01T04:06:38.769Z,13.30
2019-06-01T04:09:09.710Z,13.57
2019-06-01T04:11:39.203Z,14.13
2019-06-01T04:14:08.315Z,13.43
2019-06-01T04:16:37.267Z,13.97
2019-06-01T04:19:06.367Z,13.77
2019-06-01T04:21:35.408Z,13.77
2019-06-01T04:24:04.577Z,13.83
2019-06-01T04:26:33.601Z,14.20
2019-06-01T04:29:04.764Z,13.47
2019-06-01T04:31:33.515Z,14.30
2019-06-01T04:34:02.812Z,14.33
2019-06-01T04:36:31.784Z,14.77
2019-06-01T04:39:00.740Z,14.30
2019-06-01T04:41:29.714Z,14.07
2019-06-01T04:43:58.671Z,15.07
2019-06-01T04:46:27.716Z,14.73
2019-06-01T04:48:56.783Z,15.33
2019-06-01T04:51:25.826Z,14.13
2019-06-01T04:53:54.740Z,14.83
2019-06-01T04:56:23.715Z,14.60
2019-06-01T04:58:52.663Z,13.83
2019-06-01T05:01:21.642Z,14.13
2019-06-01T05:03:50.591Z,14.13
2019-06-01T05:06:19.556Z,14.17
2019-06-01T05:08:48.525Z,15.03
2019-06-01T05:11:17.532Z,14.90
2019-06-01T05:13:46.735Z,14.57
2019-06-01T05:16:16.603Z,14.73
2019-06-01T05:18:45.641Z,13.63
2019-06-01T05:21:15.201Z,13.70
2019-06-01T05:23:44.741Z,14.60
2019-06-01T05:26:14.999Z,14.43
2019-06-01T05:28:44.170Z,13.63
2019-06-01T05:31:21.724Z,14.27
2019-06-01T05:33:44.123Z,14.40
2019-06-01T05:36:14.280Z,14.67
2019-06-01T05:38:43.371Z,13.73
2019-06-01T05:41:13.254Z,13.67
2019-06-01T05:43:42.607Z,14.00
2019-06-01T05:46:11.836Z,15.13
2019-06-01T05:48:41.120Z,14.60
2019-06-01T05:51:12.769Z,13.67
2019-06-01T05:53:40.829Z,14.73
2019-06-01T05:56:10.554Z,14.50
2019-06-01T05:58:39.455Z,14.30
2019-06-01T06:01:08.604Z,14.67
2019-06-01T06:03:40.349Z,13.93
2019-06-01T06:06:08.220Z,14.40
2019-06-01T06:08:37.286Z,13.90
2019-06-01T06:11:06.332Z,14.13
2019-06-01T06:13:35.392Z,12.70
2019-06-01T06:16:04.757Z,14.23
2019-06-01T06:18:33.708Z,13.80
2019-06-01T06:21:02.706Z,14.17
2019-06-01T06:23:31.639Z,14.00
2019-06-01T06:26:00.620Z,14.00
2019-06-01T06:28:29.644Z,13.77
2019-06-01T06:30:58.732Z,14.20
2019-06-01T06:33:27.699Z,14.70
2019-06-01T06:35:56.735Z,13.13
2019-06-01T06:38:25.851Z,13.70
2019-06-01T06:40:54.793Z,14.23
2019-06-01T06:43:31.060Z,13.67
2019-06-01T06:45:54.647Z,12.93
2019-06-01T06:48:23.635Z,14.37
2019-06-01T06:50:52.581Z,13.67
2019-06-01T06:53:28.459Z,14.20
2019-06-01T06:55:52.503Z,14.83
2019-06-01T06:58:22.469Z,13.27
2019-06-01T07:00:51.660Z,12.97
2019-06-01T07:03:21.059Z,12.93
2019-06-01T07:05:50.436Z,13.23
2019-06-01T07:08:19.786Z,12.47
2019-06-01T07:10:48.718Z,12.13
2019-06-01T07:13:17.675Z,12.30
2019-06-01T07:15:46.627Z,11.40
2019-06-01T07:18:15.994Z,10.93
2019-06-01T07:20:44.973Z,11.50
2019-06-01T07:23:14.018Z,10.57
2019-06-01T07:25:42.965Z,10.37
2019-06-01T07:28:11.984Z,10.00
2019-06-01T07:30:50.469Z,9.63
2019-06-01T07:33:11.940Z,8.70
2019-06-01T07:35:40.890Z,9.25
2019-06-01T07:38:09.899Z,8.35
2019-06-01T07:40:38.986Z,8.40
2019-06-01T07:43:07.944Z,6.30
2019-06-01T07:45:36.972Z,7.10
2019-06-01T07:48:06.068Z,5.90
2019-06-01T07:50:35.284Z,5.87
2019-06-01T07:53:04.688Z,5.17
2019-06-01T07:55:33.736Z,4.62
2019-06-01T07:58:02.714Z,4.40
2019-06-01T08:00:33.234Z,3.98
2019-06-01T08:03:02.228Z,4.10
2019-06-01T08:05:32.195Z,4.20
2019-06-01T08:08:01.636Z,4.65
2019-06-01T08:10:31.646Z,4.97
2019-06-01T08:13:00.818Z,4.65
2019-06-01T08:15:29.898Z,4.83
2019-06-01T08:17:58.925Z,4.72
2019-06-01T08:20:28.783Z,4.83
2019-06-01T08:22:58.248Z,4.05
2019-06-01T08:25:28.473Z,4.30
2019-06-01T08:27:57.740Z,4.70
2019-06-01T08:30:26.860Z,4.30
2019-06-01T08:32:56.145Z,3.83
2019-06-01T08:35:25.117Z,3.83
2019-06-01T08:37:54.136Z,3.85
2019-06-01T08:40:23.360Z,3.70
2019-06-01T08:42:52.439Z,3.25
2019-06-01T08:45:21.800Z,3.55
2019-06-01T08:47:51.061Z,3.87
2019-06-01T08:50:20.980Z,3.30
2019-06-01T08:52:49.989Z,3.47
2019-06-01T08:55:19.112Z,3.15
2019-06-01T08:57:48.169Z,3.75
2019-06-01T09:00:17.401Z,3.47
2019-06-01T09:02:46.433Z,3.75
2019-06-01T09:05:23.790Z,4.78
2019-06-01T09:07:46.096Z,4.03
2019-06-01T09:10:15.805Z,3.60
2019-06-01T09:12:44.824Z,3.62
2019-06-01T09:15:14.039Z,3.67
2019-06-01T09:17:43.068Z,3.30
2019-06-01T09:20:12.175Z,3.35
2019-06-01T09:22:41.243Z,4.22
2019-06-01T09:25:10.340Z,3.80
2019-06-01T09:27:39.372Z,3.25
2019-06-01T09:30:09.116Z,3.60
2019-06-01T09:32:38.236Z,3.85
2019-06-01T09:35:07.899Z,3.55
2019-06-01T09:37:36.888Z,3.77
2019-06-01T09:40:06.236Z,3.87
2019-06-01T09:42:35.350Z,4.67
2019-06-01T09:45:05.432Z,4.10
2019-06-01T09:47:35.545Z,3.98
2019-06-01T09:50:05.768Z,3.60
2019-06-01T09:52:35.565Z,4.08
2019-06-01T09:55:05.219Z,3.75
2019-06-01T09:57:34.386Z,3.08
2019-06-01T10:00:03.688Z,3.30
2019-06-01T10:02:34.049Z,3.10
2019-06-01T10:05:03.184Z,3.27
2019-06-01T10:07:32.833Z,3.30
2019-06-01T10:10:02.178Z,3.12
2019-06-01T10:12:31.890Z,3.10
2019-06-01T10:15:14.529Z,3.60
2019-06-01T10:17:43.468Z,3.22
2019-06-01T10:20:12.589Z,3.75
2019-06-01T10:22:41.702Z,3.70
2019-06-01T10:25:11.309Z,3.45
2019-06-01T10:27:40.424Z,4.00
2019-06-01T10:30:10.071Z,3.70
2019-06-01T10:32:39.905Z,3.47
2019-06-01T10:35:09.731Z,3.70
2019-06-01T10:37:39.605Z,3.40
2019-06-01T10:40:09.049Z,3.50
2019-06-01T10:42:38.176Z,3.40
2019-06-01T10:45:08.584Z,3.52
2019-06-01T10:47:38.437Z,3.35
2019-06-01T10:50:08.453Z,3.37
2019-06-01T10:52:38.334Z,3.30
2019-06-01T10:55:09.289Z,3.47
2019-06-01T10:57:38.581Z,3.60
2019-06-01T11:00:08.236Z,3.50
2019-06-01T11:02:38.672Z,3.08
2019-06-01T11:05:08.588Z,3.45
2019-06-01T11:07:38.669Z,3.60
2019-06-01T11:10:08.722Z,3.20
2019-06-01T11:12:38.893Z,3.17
2019-06-01T11:15:08.580Z,3.10
2019-06-01T11:17:37.688Z,3.37
2019-06-01T11:20:07.123Z,3.55
2019-06-01T11:22:37.512Z,3.30
2019-06-01T11:25:07.217Z,6.83
2019-06-01T11:27:37.630Z,3.20
2019-06-01T11:30:08.308Z,3.02
2019-06-01T11:32:39.625Z,2.92
2019-06-01T11:35:08.775Z,3.02
2019-06-01T11:37:38.452Z,2.77
2019-06-01T11:40:08.496Z,3.17
2019-06-01T11:42:39.067Z,3.20
2019-06-01T11:45:09.233Z,3.00
2019-06-01T11:47:38.882Z,2.95
2019-06-01T11:50:08.791Z,3.00
2019-06-01T11:52:39.072Z,3.12
2019-06-01T11:55:09.012Z,3.10
2019-06-01T11:57:39.353Z,2.80
2019-06-01T12:00:10.944Z,2.92
2019-06-01T12:02:39.984Z,3.02
2019-06-01T12:05:10.704Z,2.83
2019-06-01T12:07:40.043Z,2.72
2019-06-01T12:10:10.223Z,2.70
2019-06-01T12:12:40.199Z,2.80
2019-06-01T12:15:09.718Z,2.58
2019-06-01T12:17:38.922Z,3.05
2019-06-01T12:20:09.278Z,2.77
2019-06-01T12:22:38.799Z,2.98
2019-06-01T12:25:08.045Z,2.72
2019-06-01T12:27:37.381Z,2.47
2019-06-01T12:30:07.152Z,2.62
2019-06-01T12:32:37.701Z,2.40
2019-06-01T12:35:07.033Z,2.60
2019-06-01T12:37:55.030Z,2.37
2019-06-01T12:40:07.859Z,2.58
2019-06-01T12:42:37.200Z,2.62
2019-06-01T12:45:06.505Z,2.37
2019-06-01T12:47:35.931Z,2.50
2019-06-01T12:50:05.393Z,2.52
2019-06-01T12:52:34.372Z,2.20
2019-06-01T12:55:03.582Z,2.52
2019-06-01T12:57:32.539Z,2.42
2019-06-01T13:00:01.508Z,2.70
2019-06-01T13:02:30.569Z,2.12
2019-06-01T13:04:59.558Z,2.40
2019-06-01T13:07:28.788Z,2.60
2019-06-01T13:09:57.860Z,2.87
2019-06-01T13:12:26.837Z,2.58
2019-06-01T13:14:55.891Z,2.90
2019-06-01T13:17:25.246Z,2.58
2019-06-01T13:19:54.260Z,2.70
2019-06-01T13:22:23.253Z,2.20
2019-06-01T13:24:52.227Z,2.27
2019-06-01T13:27:21.191Z,2.00
2019-06-01T13:29:50.430Z,2.30
2019-06-01T13:32:19.409Z,2.20
2019-06-01T13:34:49.153Z,2.40
2019-06-01T13:37:18.551Z,2.50
2019-06-01T13:39:52.250Z,1.98
2019-06-01T13:42:18.353Z,2.20
2019-06-01T13:44:47.460Z,2.05
2019-06-01T13:47:16.499Z,2.22
2019-06-01T13:49:46.832Z,2.00
2019-06-01T13:52:16.216Z,2.45
2019-06-01T13:54:46.438Z,2.10
2019-06-01T13:57:15.517Z,2.25
2019-06-01T13:59:44.682Z,2.02
2019-06-01T14:02:13.684Z,2.00
2019-06-01T14:04:42.716Z,1.90
2019-06-01T14:07:11.694Z,2.20
2019-06-01T14:09:40.637Z,2.12
2019-06-01T14:12:09.764Z,2.02
2019-06-01T14:14:38.771Z,2.25
2019-06-01T14:17:07.834Z,2.10
2019-06-01T14:19:36.960Z,1.85
2019-06-01T14:22:06.364Z,1.90
2019-06-01T14:24:35.336Z,2.05
2019-06-01T14:27:04.546Z,1.98
2019-06-01T14:29:33.644Z,1.65
2019-06-01T14:32:02.668Z,1.85
2019-06-01T14:34:31.768Z,1.70
2019-06-01T14:37:00.702Z,1.62
2019-06-01T14:39:29.712Z,2.10
2019-06-01T14:41:58.704Z,1.85
2019-06-01T14:44:27.967Z,1.90
2019-06-01T14:47:05.021Z,1.80
2019-06-01T14:49:27.907Z,1.72
2019-06-01T14:51:57.832Z,2.10
2019-06-01T14:54:26.968Z,1.75
2019-06-01T14:56:55.958Z,1.60
2019-06-01T14:59:25.278Z,1.98
2019-06-01T15:01:54.356Z,1.70
2019-06-01T15:04:23.363Z,1.80
2019-06-01T15:06:52.383Z,1.60
2019-06-01T15:09:21.469Z,1.87
2019-06-01T15:11:50.674Z,1.80
2019-06-01T15:14:19.945Z,2.00
2019-06-01T15:16:49.571Z,2.22
2019-06-01T15:19:18.812Z,1.98
2019-06-01T15:21:47.837Z,1.77
2019-06-01T15:24:16.946Z,1.75
2019-06-01T15:26:45.885Z,1.82
2019-06-01T15:29:14.920Z,1.60
2019-06-01T15:31:43.990Z,1.80
2019-06-01T15:34:12.981Z,1.67
2019-06-01T15:36:41.916Z,2.05
2019-06-01T15:39:24.147Z,1.92
2019-06-01T15:41:41.589Z,1.60
2019-06-01T15:44:10.679Z,1.72
2019-06-01T15:46:39.803Z,1.80
2019-06-01T15:49:08.857Z,1.90
2019-06-01T15:51:37.824Z,1.95
2019-06-01T15:54:06.953Z,1.60
2019-06-01T15:56:35.976Z,1.75
2019-06-01T15:59:05.200Z,1.82
2019-06-01T16:01:34.348Z,1.80
2019-06-01T16:04:03.504Z,1.55
2019-06-01T16:06:32.439Z,1.70
2019-06-01T16:09:01.799Z,1.80
2019-06-01T16:11:31.551Z,1.65
2019-06-01T16:14:01.716Z,1.77
2019-06-01T16:16:30.739Z,2.00
2019-06-01T16:19:04.861Z,1.87
2019-06-01T16:21:30.763Z,1.60
2019-06-01T16:24:00.428Z,1.90
2019-06-01T16:26:29.555Z,1.72
2019-06-01T16:28:58.618Z,1.70
2019-06-01T16:31:27.654Z,2.00
2019-06-01T16:33:56.660Z,1.80
2019-06-01T16:36:25.564Z,2.02
2019-06-01T16:39:01.117Z,2.25
2019-06-01T16:41:25.721Z,1.80
2019-06-01T16:43:55.482Z,1.72
2019-06-01T16:46:24.428Z,1.80
2019-06-01T16:48:53.480Z,2.45
2019-06-01T16:51:22.784Z,1.80
2019-06-01T16:53:51.736Z,2.25
2019-06-01T16:56:20.764Z,1.85
2019-06-01T16:58:49.861Z,2.33
2019-06-01T17:01:18.907Z,2.00
2019-06-01T17:03:47.928Z,1.90
2019-06-01T17:06:17.037Z,2.30
2019-06-01T17:08:46.056Z,1.90
2019-06-01T17:11:15.021Z,1.75
2019-06-01T17:13:44.031Z,2.20
2019-06-01T17:16:13.041Z,2.20
2019-06-01T17:18:43.800Z,1.82
2019-06-01T17:21:12.917Z,1.90
2019-06-01T17:23:41.881Z,2.00
2019-06-01T17:26:10.939Z,1.90
2019-06-01T17:28:39.953Z,2.10
2019-06-01T17:31:09.261Z,2.00
2019-06-01T17:33:38.268Z,2.25
2019-06-01T17:36:07.406Z,2.22
2019-06-01T17:38:36.362Z,1.92
2019-06-01T17:41:06.324Z,1.90
2019-06-01T17:43:35.804Z,1.98
2019-06-01T17:46:05.311Z,1.90
2019-06-01T17:48:34.661Z,1.70
2019-06-01T17:51:04.445Z,3.80
2019-06-01T17:53:33.479Z,3.37
2019-06-01T17:56:03.839Z,3.60
2019-06-01T17:58:33.067Z,2.30
2019-06-01T18:01:02.135Z,1.98
2019-06-01T18:03:31.077Z,2.00
2019-06-01T18:06:00.040Z,2.05
2019-06-01T18:08:29.135Z,2.00
2019-06-01T18:10:58.216Z,1.70
2019-06-01T18:13:27.173Z,1.90
2019-06-01T18:15:56.160Z,1.70
2019-06-01T18:18:25.155Z,2.00
2019-06-01T18:20:54.304Z,1.80
2019-06-01T18:23:23.314Z,1.90
2019-06-01T18:25:52.558Z,1.80
2019-06-01T18:28:21.994Z,3.30
2019-06-01T18:30:51.743Z,2.80
2019-06-01T18:33:21.175Z,2.20
2019-06-01T18:35:50.208Z,2.15
2019-06-01T18:38:19.323Z,2.00
2019-06-01T18:40:49.462Z,2.22
2019-06-01T18:43:19.369Z,1.92
2019-06-01T18:45:49.268Z,1.92
2019-06-01T18:48:19.985Z,1.82
2019-06-01T18:50:49.414Z,2.00
2019-06-01T18:53:18.528Z,2.30
2019-06-01T18:55:47.542Z,2.15
2019-06-01T18:58:16.588Z,2.50
2019-06-01T19:00:45.924Z,2.10
2019-06-01T19:03:15.556Z,2.10
2019-06-01T19:05:44.759Z,2.60
2019-06-01T19:08:13.877Z,2.30
2019-06-01T19:10:43.478Z,2.27
2019-06-01T19:13:13.870Z,6.23
2019-06-01T19:15:43.273Z,3.73
2019-06-01T19:18:12.604Z,3.40
2019-06-01T19:20:41.729Z,2.93
2019-06-01T19:23:10.857Z,3.00
2019-06-01T19:25:39.779Z,2.77
2019-06-01T19:28:08.915Z,2.67
2019-06-01T19:30:39.857Z,3.43
2019-06-01T19:33:14.187Z,2.57
2019-06-01T19:35:41.820Z,2.80
2019-06-01T19:38:11.388Z,2.37
2019-06-01T19:40:41.901Z,3.30
2019-06-01T19:43:11.569Z,3.20
2019-06-01T19:45:41.264Z,3.00
2019-06-01T19:48:10.588Z,3.10
2019-06-01T19:50:39.693Z,2.83
2019-06-01T19:53:08.909Z,3.03
2019-06-01T19:55:38.227Z,3.27
2019-06-01T19:58:07.677Z,2.93
2019-06-01T20:00:36.704Z,3.00
2019-06-01T20:03:21.523Z,3.10
2019-06-01T20:05:48.315Z,4.30
2019-06-01T20:08:18.119Z,3.63
2019-06-01T20:10:47.425Z,3.73
2019-06-01T20:13:17.294Z,3.27
2019-06-01T20:15:46.551Z,3.20
2019-06-01T20:18:16.935Z,3.33
2019-06-01T20:20:46.255Z,3.60
2019-06-01T20:23:15.439Z,3.27
2019-06-01T20:25:44.440Z,3.40
2019-06-01T20:28:13.638Z,3.37
2019-06-01T20:30:42.724Z,3.77
2019-06-01T20:33:11.974Z,3.60
2019-06-01T20:35:41.042Z,3.80
2019-06-01T20:38:10.180Z,3.73
2019-06-01T20:40:39.455Z,3.80
2019-06-01T20:43:08.408Z,3.63
2019-06-01T20:45:37.401Z,3.80
2019-06-01T20:48:06.442Z,3.70
2019-06-01T20:50:35.408Z,3.60
2019-06-01T20:53:04.557Z,3.80
2019-06-01T20:55:33.570Z,3.83
2019-06-01T20:58:02.519Z,4.27
2019-06-01T21:00:32.083Z,3.40
2019-06-01T21:03:01.198Z,3.93
2019-06-01T21:05:30.210Z,3.77
2019-06-01T21:07:59.308Z,4.30
2019-06-01T21:10:28.373Z,3.80
2019-06-01T21:12:57.704Z,3.80
2019-06-01T21:15:27.118Z,8.20
2019-06-01T21:17:56.132Z,6.47
2019-06-01T21:20:29.798Z,4.70
2019-06-01T21:22:56.447Z,3.80
2019-06-01T21:25:25.631Z,4.33
2019-06-01T21:27:54.644Z,3.93
2019-06-01T21:30:24.657Z,3.90
2019-06-01T21:32:54.204Z,4.13
2019-06-01T21:35:23.544Z,4.40
2019-06-01T21:37:52.484Z,4.00
2019-06-01T21:40:21.626Z,4.00
2019-06-01T21:43:01.152Z,4.77
2019-06-01T21:45:21.691Z,4.60
2019-06-01T21:47:51.016Z,4.63
2019-06-01T21:50:20.187Z,4.90
2019-06-01T21:52:49.291Z,4.60
2019-06-01T21:55:18.733Z,5.17
2019-06-01T21:57:47.689Z,4.80
2019-06-01T22:00:26.710Z,5.10
2019-06-01T22:02:56.095Z,4.90
2019-06-01T22:05:25.552Z,4.67
2019-06-01T22:07:54.577Z,4.90
2019-06-01T22:10:23.549Z,4.93
2019-06-01T22:12:52.497Z,5.00
2019-06-01T22:15:21.919Z,4.53
2019-06-01T22:17:50.978Z,5.00
2019-06-01T22:20:20.051Z,5.13
2019-06-01T22:22:49.118Z,5.20
2019-06-01T22:25:18.443Z,5.00
2019-06-01T22:27:48.416Z,5.53
2019-06-01T22:30:18.386Z,5.50
2019-06-01T22:32:47.859Z,5.63
2019-06-01T22:35:16.899Z,5.77
2019-06-01T22:37:45.850Z,6.03
2019-06-01T22:40:15.024Z,6.10
2019-06-01T22:42:44.171Z,6.00
2019-06-01T22:45:13.470Z,5.90
2019-06-01T22:47:42.556Z,5.40
2019-06-01T22:50:12.323Z,4.90
2019-06-01T22:52:41.331Z,5.50
2019-06-01T22:55:10.959Z,5.83
2019-06-01T22:57:43.135Z,6.10
2019-06-01T23:00:10.868Z,5.90
2019-06-01T23:02:39.872Z,5.83
2019-06-01T23:05:09.364Z,6.73
2019-06-01T23:07:38.488Z,6.50
2019-06-01T23:10:07.552Z,6.10
2019-06-01T23:12:36.553Z,6.10
2019-06-01T23:15:06.181Z,6.03
2019-06-01T23:17:35.181Z,6.33
2019-06-01T23:20:05.180Z,6.67
2019-06-01T23:22:34.254Z,6.57
2019-06-01T23:25:03.650Z,6.30
2019-06-01T23:27:32.667Z,6.20
2019-06-01T23:30:01.660Z,6.20
2019-06-01T23:32:30.775Z,6.70
2019-06-01T23:35:00.016Z,6.43
2019-06-01T23:37:29.132Z,6.77
2019-06-01T23:39:58.071Z,6.90
2019-06-01T23:42:27.059Z,6.53
2019-06-01T23:44:56.035Z,5.87
2019-06-01T23:47:25.713Z,6.20
2019-06-01T23:49:54.957Z,6.30
2019-06-01T23:52:24.001Z,6.77
2019-06-01T23:54:53.072Z,6.40
2019-06-01T23:57:22.055Z,6.07
2019-06-01T23:59:51.012Z,7.13
